Time;durP1;ratioP1;P1;durP2;ratioP2;P2;SDS_P1;SDS_P2;PMS_P1;PMS_P2;Temp;Humidity;BMP_temperature;BMP_pressure;BME280_temperature;BME280_humidity;BME280_pressure;Samples;Min_cycle;Max_cycle;Signal;HPM_P1;HPM_P2
2020/12/11 00:00:52;;;;;;;2.20;1.13;;;;;;;-3.27;74.76;100895.76;1823940;78;21188;-75
2020/12/11 00:03:21;;;;;;;1.90;1.10;;;;;;;-3.30;74.80;100891.91;1824200;78;22110;-74
2020/12/11 00:05:49;;;;;;;2.40;1.33;;;;;;;-3.32;74.79;100893.75;1824090;78;20923;-74
2020/12/11 00:08:17;;;;;;;4.33;1.97;;;;;;;-3.34;74.80;100889.47;1824081;78;21006;-75
2020/12/11 00:10:46;;;;;;;1.70;1.20;;;;;;;-3.35;74.80;100895.66;1823977;78;20947;-75
2020/12/11 00:13:14;;;;;;;2.53;1.57;;;;;;;-3.39;74.79;100894.08;1824042;78;20975;-75
2020/12/11 00:15:42;;;;;;;3.53;2.10;;;;;;;-3.41;74.84;100885.34;1823995;78;21161;-75
2020/12/11 00:18:10;;;;;;;1.67;1.57;;;;;;;-3.46;74.88;100889.48;1826635;77;20997;-75
2020/12/11 00:20:38;;;;;;;1.20;1.20;;;;;;;-3.49;74.93;100894.45;1843712;77;20937;-75
2020/12/11 00:23:06;;;;;;;2.53;1.83;;;;;;;-3.52;74.94;100883.98;1843103;77;20969;-74
2020/12/11 00:25:35;;;;;;;2.20;2.10;;;;;;;-3.54;74.91;100884.51;1843701;77;20989;-75
2020/12/11 00:28:03;;;;;;;2.73;2.27;;;;;;;-3.56;74.97;100890.32;1843519;77;21258;-74
2020/12/11 00:30:32;;;;;;;1.73;1.63;;;;;;;-3.59;75.06;100886.91;1843620;77;20969;-75
2020/12/11 00:33:00;;;;;;;3.87;2.17;;;;;;;-3.63;75.14;100891.02;1843878;77;21399;-73
2020/12/11 00:35:28;;;;;;;1.50;1.37;;;;;;;-3.66;75.14;100883.66;1843756;77;21539;-74
2020/12/11 00:37:56;;;;;;;1.37;0.93;;;;;;;-3.68;75.13;100882.87;1843638;77;21001;-74
2020/12/11 00:40:24;;;;;;;2.33;1.70;;;;;;;-3.72;75.22;100884.77;1843644;77;21021;-74
2020/12/11 00:42:54;;;;;;;1.33;1.23;;;;;;;-3.73;75.29;100880.86;1839520;77;21030;-74
2020/12/11 00:45:22;;;;;;;2.93;1.37;;;;;;;-3.75;75.35;100872.10;1843701;77;20946;-75
2020/12/11 00:47:49;;;;;;;3.67;2.00;;;;;;;-3.79;75.39;100870.04;1843554;77;20985;-75
2020/12/11 00:50:18;;;;;;;1.10;1.00;;;;;;;-3.80;75.47;100865.69;1843728;77;21001;-75
2020/12/11 00:52:45;;;;;;;2.00;1.63;;;;;;;-3.84;75.52;100867.59;1815710;77;22233;-74
2020/12/11 00:55:16;;;;;;;0.90;0.90;;;;;;;-3.86;75.57;100865.47;1843631;77;21017;-74
2020/12/11 00:57:46;;;;;;;1.97;1.77;;;;;;;-3.87;75.59;100864.20;1843744;77;21033;-74
2020/12/11 01:00:16;;;;;;;1.40;1.30;;;;;;;-3.90;75.66;100857.24;1843668;77;21057;-75
2020/12/11 01:02:44;;;;;;;1.43;1.33;;;;;;;-3.92;75.72;100851.63;1809762;79;21009;-74
2020/12/11 01:05:12;;;;;;;6.20;1.77;;;;;;;-3.94;75.76;100851.69;1809627;79;21814;-76
2020/12/11 01:07:39;;;;;;;4.00;1.87;;;;;;;-3.97;75.87;100844.33;1809620;78;21197;-75
2020/12/11 01:10:09;;;;;;;1.37;1.20;;;;;;;-4.02;75.97;100844.06;1809795;79;21175;-75
2020/12/11 01:12:36;;;;;;;1.70;1.60;;;;;;;-4.01;76.06;100846.23;1809738;79;20986;-75
2020/12/11 01:15:04;;;;;;;2.03;1.60;;;;;;;-4.03;76.11;100839.69;1810003;79;20977;-74
2020/12/11 01:17:32;;;;;;;1.70;1.60;;;;;;;-4.04;76.14;100823.88;1803587;79;21356;-74
2020/12/11 01:20:00;;;;;;;3.23;2.30;;;;;;;-4.06;76.19;100828.38;1761104;79;21087;-75
2020/12/11 01:22:27;;;;;;;1.57;0.90;;;;;;;-4.09;76.25;100825.84;1757015;81;21060;-75
2020/12/11 01:24:57;;;;;;;2.70;2.50;;;;;;;-4.10;76.30;100820.17;1732196;81;21633;-75
2020/12/11 01:27:25;;;;;;;1.83;1.73;;;;;;;-4.12;76.37;100816.73;1756889;81;20969;-74
2020/12/11 01:29:52;;;;;;;1.30;1.30;;;;;;;-4.14;76.50;100816.79;1757104;81;22110;-74
2020/12/11 01:32:20;;;;;;;3.67;2.30;;;;;;;-4.15;76.61;100817.70;1757051;81;20918;-75
2020/12/11 01:34:48;;;;;;;1.50;1.40;;;;;;;-4.15;76.66;100819.48;1767493;79;21650;-75
2020/12/11 01:37:16;;;;;;;2.50;1.30;;;;;;;-4.17;76.68;100818.22;1791226;80;21029;-74
2020/12/11 01:39:43;;;;;;;1.53;1.43;;;;;;;-4.15;76.68;100816.84;1791367;80;21595;-75
2020/12/11 01:42:12;;;;;;;1.93;1.53;;;;;;;-4.16;76.73;100823.03;1791397;80;22277;-74
2020/12/11 01:44:53;;;;;;;1.87;1.77;;;;;;;-4.18;76.81;100819.13;1780295;80;21568;-74
2020/12/11 01:47:21;;;;;;;1.10;1.10;;;;;;;-4.20;76.82;100813.92;1777174;80;21196;-74
2020/12/11 01:49:51;;;;;;;5.60;2.57;;;;;;;-4.22;76.83;100819.70;1777126;80;20912;-75
2020/12/11 01:52:19;;;;;;;3.33;2.00;;;;;;;-4.23;76.86;100814.03;1781516;79;20938;-74
2020/12/11 01:54:47;;;;;;;1.70;1.50;;;;;;;-4.25;76.93;100821.16;1801617;79;21200;-75
2020/12/11 01:57:32;;;;;;;3.83;2.43;;;;;;;-4.25;76.97;100809.27;1812570;77;21032;-75
2020/12/11 02:00:08;;;;;;;3.60;2.50;;;;;;;-4.21;76.99;100811.34;1846132;76;23979;-75
2020/12/11 02:02:38;;;;;;;2.17;1.70;;;;;;;-4.26;77.00;100815.93;1818199;78;20924;-76
2020/12/11 02:05:26;;;;;;;2.63;2.03;;;;;;;-4.27;77.02;100816.37;1818540;79;21193;-75
2020/12/11 02:07:53;;;;;;;2.93;1.57;;;;;;;-4.28;77.06;100817.77;1765806;81;20920;-75
2020/12/11 02:10:21;;;;;;;3.60;2.13;;;;;;;-4.29;77.04;100815.56;1743529;82;21018;-74
2020/12/11 02:12:48;;;;;;;2.10;1.90;;;;;;;-4.30;77.02;100813.87;1743670;82;20998;-75
2020/12/11 02:15:16;;;;;;;2.20;2.00;;;;;;;-4.32;77.03;100817.46;1743675;82;20952;-76
2020/12/11 02:17:44;;;;;;;3.37;2.17;;;;;;;-4.35;77.04;100813.64;1741895;82;21209;-74
2020/12/11 02:20:12;;;;;;;1.70;1.37;;;;;;;-4.37;77.09;100804.89;1751217;81;20977;-74
2020/12/11 02:22:41;;;;;;;1.37;1.27;;;;;;;-4.40;77.17;100790.03;1755596;81;21020;-75
2020/12/11 02:25:09;;;;;;;2.00;1.80;;;;;;;-4.40;77.20;100795.31;1755557;81;21073;-75
2020/12/11 02:27:38;;;;;;;1.63;1.53;;;;;;;-4.43;77.28;100789.67;1755766;81;20925;-75
2020/12/11 02:30:05;;;;;;;3.30;2.17;;;;;;;-4.43;77.33;100789.67;1755599;81;21391;-74
2020/12/11 02:32:33;;;;;;;2.53;2.13;;;;;;;-4.44;77.38;100781.38;1755528;81;21000;-75
2020/12/11 02:35:01;;;;;;;2.00;1.90;;;;;;;-4.45;77.39;100791.52;1755581;81;21198;-75
2020/12/11 02:37:29;;;;;;;3.40;1.33;;;;;;;-4.48;77.45;100792.98;1705101;81;21048;-75
2020/12/11 02:39:56;;;;;;;1.40;1.30;;;;;;;-4.50;77.50;100782.91;1755515;81;20937;-74
2020/12/11 02:42:24;;;;;;;4.97;3.83;;;;;;;-4.51;77.54;100780.34;1755548;81;22136;-76
2020/12/11 02:44:52;;;;;;;1.40;1.40;;;;;;;-4.53;77.59;100787.00;1755418;81;21036;-75
2020/12/11 02:47:19;;;;;;;1.53;1.43;;;;;;;-4.54;77.60;100783.95;1755548;81;21004;-75
2020/12/11 02:49:47;;;;;;;1.20;1.20;;;;;;;-4.57;77.59;100780.09;1755444;81;21054;-74
2020/12/11 02:52:16;;;;;;;1.93;1.63;;;;;;;-4.58;77.65;100779.70;1755403;81;21008;-74
2020/12/11 02:54:44;;;;;;;2.93;1.83;;;;;;;-4.61;77.70;100777.17;1755498;81;23696;-75
2020/12/11 02:57:12;;;;;;;4.43;2.60;;;;;;;-4.61;77.76;100774.06;1755412;81;20961;-75
2020/12/11 02:59:39;;;;;;;2.60;1.83;;;;;;;-4.64;77.86;100768.04;1755434;81;21637;-75
2020/12/11 03:02:07;;;;;;;2.40;1.93;;;;;;;-4.65;77.91;100774.25;1755343;81;21029;-75
2020/12/11 03:04:35;;;;;;;0.90;0.90;;;;;;;-4.66;78.01;100764.13;1755462;81;20988;-74
2020/12/11 03:07:03;;;;;;;2.97;2.63;;;;;;;-4.67;78.02;100772.13;1755298;81;21204;-75
2020/12/11 03:09:32;;;;;;;4.63;2.03;;;;;;;-4.69;78.03;100769.55;1755282;81;21543;-74
2020/12/11 03:12:00;;;;;;;1.50;1.10;;;;;;;-4.71;78.08;100763.47;1755006;81;21008;-75
2020/12/11 03:14:28;;;;;;;3.93;2.43;;;;;;;-4.72;78.14;100772.29;1754924;81;21040;-75
2020/12/11 03:16:56;;;;;;;4.57;1.70;;;;;;;-4.72;78.20;100777.56;1754914;81;21044;-76
2020/12/11 03:19:24;;;;;;;3.73;1.73;;;;;;;-4.74;78.24;100769.31;1742468;81;21223;-75
2020/12/11 03:21:52;;;;;;;5.00;2.93;;;;;;;-4.76;78.25;100757.49;1754855;81;20985;-75
2020/12/11 03:24:20;;;;;;;3.37;2.60;;;;;;;-4.76;78.29;100757.49;1754892;81;20981;-75
2020/12/11 03:26:48;;;;;;;1.63;1.53;;;;;;;-4.78;78.34;100757.98;1754944;81;21076;-76
2020/12/11 03:29:16;;;;;;;2.83;2.63;;;;;;;-4.79;78.38;100760.23;1755668;80;21488;-75
2020/12/11 03:31:44;;;;;;;1.30;1.17;;;;;;;-4.81;78.44;100758.12;1756595;81;21508;-75
2020/12/11 03:34:11;;;;;;;1.63;1.50;;;;;;;-4.82;78.47;100765.15;1756455;81;21050;-76
2020/12/11 03:36:40;;;;;;;1.33;1.33;;;;;;;-4.85;78.50;100749.89;1756538;81;21596;-76
2020/12/11 03:39:09;;;;;;;3.47;2.23;;;;;;;-4.85;78.62;100752.53;1756366;81;21067;-76
2020/12/11 03:41:36;;;;;;;1.47;1.37;;;;;;;-4.87;78.69;100753.93;1756541;81;21113;-75
2020/12/11 03:44:04;;;;;;;1.73;1.63;;;;;;;-4.89;78.73;100757.05;1756568;81;21063;-75
2020/12/11 03:46:32;;;;;;;2.23;1.93;;;;;;;-4.89;78.76;100750.92;1756523;81;20971;-75
2020/12/11 03:49:00;;;;;;;1.33;1.30;;;;;;;-4.91;78.81;100754.08;1756550;81;21649;-75
2020/12/11 03:51:27;;;;;;;2.20;1.93;;;;;;;-4.92;78.83;100743.11;1756647;81;21007;-75
2020/12/11 03:53:55;;;;;;;2.40;1.70;;;;;;;-4.94;78.85;100747.12;1731453;81;21485;-76
2020/12/11 03:56:23;;;;;;;1.67;1.57;;;;;;;-4.95;78.88;100741.46;1756611;81;22110;-76
2020/12/11 03:58:51;;;;;;;2.23;2.03;;;;;;;-4.96;78.92;100747.64;1756526;81;21038;-76
2020/12/11 04:01:18;;;;;;;1.80;1.47;;;;;;;-4.98;78.96;100742.41;1756568;81;20996;-76
2020/12/11 04:03:47;;;;;;;3.43;2.10;;;;;;;-4.99;78.99;100743.35;1756427;81;21007;-75
2020/12/11 04:06:17;;;;;;;5.03;3.27;;;;;;;-5.00;79.07;100740.30;1756177;81;21577;-75
2020/12/11 04:08:45;;;;;;;2.70;2.00;;;;;;;-5.01;79.10;100739.91;1754815;81;21370;-75
2020/12/11 04:11:13;;;;;;;4.33;2.37;;;;;;;-5.00;79.18;100740.77;1754893;81;20967;-75
2020/12/11 04:13:41;;;;;;;1.20;1.20;;;;;;;-5.01;79.25;100737.27;1754916;81;21019;-75
2020/12/11 04:16:09;;;;;;;2.40;2.20;;;;;;;-5.02;79.27;100738.64;1754906;81;20991;-75
2020/12/11 04:18:37;;;;;;;2.87;2.37;;;;;;;-5.03;79.34;100732.95;1755141;81;21016;-75
2020/12/11 04:21:07;;;;;;;4.73;2.67;;;;;;;-5.04;79.37;100741.80;1757855;81;21216;-75
2020/12/11 04:23:35;;;;;;;2.47;2.20;;;;;;;-5.06;79.41;100742.31;1757908;81;21076;-75
2020/12/11 04:26:02;;;;;;;4.90;2.53;;;;;;;-5.08;79.47;100746.32;1757847;81;20966;-76
2020/12/11 04:28:30;;;;;;;3.97;2.77;;;;;;;-5.09;79.52;100749.01;1757962;81;21570;-76
2020/12/11 04:30:58;;;;;;;3.07;2.03;;;;;;;-5.10;79.54;100738.05;1758066;81;21581;-76
2020/12/11 04:33:25;;;;;;;2.53;2.33;;;;;;;-5.12;79.57;100755.23;1757887;81;21801;-76
2020/12/11 04:35:54;;;;;;;2.20;1.77;;;;;;;-5.12;79.58;100752.59;1757827;81;20973;-75
2020/12/11 04:38:21;;;;;;;6.33;2.93;;;;;;;-5.16;79.59;100747.89;1757892;81;21550;-75
2020/12/11 04:40:58;;;;;;;3.10;2.80;;;;;;;-5.18;79.63;100741.81;1757814;81;21036;-77
2020/12/11 04:43:25;;;;;;;4.73;2.80;;;;;;;-5.20;79.65;100750.24;1729412;82;20954;-76
2020/12/11 04:45:54;;;;;;;2.27;2.07;;;;;;;-5.21;79.65;100749.82;1729251;83;22120;-75
2020/12/11 04:48:22;;;;;;;2.47;2.17;;;;;;;-5.23;79.67;100750.34;1729214;83;21054;-76
2020/12/11 04:50:53;;;;;;;1.70;1.33;;;;;;;-5.25;79.72;100751.32;1725120;83;21019;-75
2020/12/11 04:53:21;;;;;;;3.63;2.70;;;;;;;-5.26;79.74;100736.41;1729219;83;21049;-76
2020/12/11 04:55:49;;;;;;;4.97;3.37;;;;;;;-5.28;79.77;100740.41;1729336;83;21065;-76
2020/12/11 04:58:17;;;;;;;2.40;1.70;;;;;;;-5.29;79.80;100735.18;1705267;83;22219;-77
2020/12/11 05:00:45;;;;;;;3.33;2.63;;;;;;;-5.30;79.84;100741.39;1729201;83;20990;-75
2020/12/11 05:03:13;;;;;;;3.93;2.53;;;;;;;-5.33;79.90;100735.74;1729204;83;21684;-76
2020/12/11 05:05:42;;;;;;;1.97;1.87;;;;;;;-5.35;79.96;100736.26;1729254;83;21671;-76
2020/12/11 05:08:19;;;;;;;2.33;1.93;;;;;;;-5.35;79.99;100721.33;1705738;83;21576;-77
2020/12/11 05:10:55;;;;;;;3.03;2.10;;;;;;;-5.32;80.04;100726.94;1806966;77;22853;-76
2020/12/11 05:13:25;;;;;;;2.80;2.20;;;;;;;-5.38;80.08;100735.07;1769900;80;20966;-77
2020/12/11 05:16:12;;;;;;;2.97;2.40;;;;;;;-5.38;80.13;100742.98;1768570;81;21261;-75
2020/12/11 05:18:40;;;;;;;3.53;2.53;;;;;;;-5.41;80.23;100742.61;1768518;81;20982;-76
2020/12/11 05:21:20;;;;;;;2.20;1.73;;;;;;;-5.43;80.22;100743.59;1768571;81;21037;-76
2020/12/11 05:24:22;;;;;;;2.73;2.40;;;;;;;-5.46;80.27;100747.64;1768435;81;21017;-76
2020/12/11 05:26:50;;;;;;;4.53;2.10;;;;;;;-5.48;80.28;100745.52;1669779;84;21506;-76
2020/12/11 05:29:20;;;;;;;3.43;2.37;;;;;;;-5.52;80.32;100752.66;1671011;85;21905;-74
2020/12/11 05:31:48;;;;;;;6.13;3.73;;;;;;;-5.52;80.36;100736.85;1687253;84;21563;-76
2020/12/11 05:34:17;;;;;;;2.53;2.30;;;;;;;-5.53;80.43;100747.83;1671038;85;21083;-76
2020/12/11 05:36:53;;;;;;;2.33;2.13;;;;;;;-5.53;80.48;100732.48;1692901;84;21057;-76
2020/12/11 05:39:33;;;;;;;1.67;1.57;;;;;;;-5.54;80.52;100740.00;1671139;85;21104;-76
2020/12/11 05:42:03;;;;;;;2.93;1.97;;;;;;;-5.53;80.53;100741.23;1692889;84;21400;-75
2020/12/11 05:44:32;;;;;;;4.53;3.47;;;;;;;-5.53;80.53;100746.52;1677033;85;21074;-76
2020/12/11 05:47:21;;;;;;;1.90;1.80;;;;;;;-5.51;80.59;100744.30;1680312;85;21533;-77
2020/12/11 05:49:49;;;;;;;4.97;2.40;;;;;;;-5.51;80.57;100737.70;1673634;85;21635;-76
2020/12/11 05:52:19;;;;;;;1.50;1.50;;;;;;;-5.50;80.62;100735.48;1722447;83;21026;-75
2020/12/11 05:54:54;;;;;;;6.40;4.23;;;;;;;-5.52;80.61;100730.27;1722931;83;21420;-78
2020/12/11 05:57:57;;;;;;;3.97;2.87;;;;;;;-5.45;80.61;100737.05;1897873;75;22371;-76
2020/12/11 06:00:26;;;;;;;2.50;2.20;;;;;;;-5.49;80.62;100738.05;1865418;76;20940;-77
2020/12/11 06:02:54;;;;;;;4.57;3.40;;;;;;;-5.47;80.63;100727.45;1849391;76;21405;-77
2020/12/11 06:05:24;;;;;;;2.10;1.90;;;;;;;-5.43;80.71;100739.64;1867194;76;20992;-76
2020/12/11 06:07:52;;;;;;;3.60;3.30;;;;;;;-5.39;80.76;100739.46;1836933;76;20954;-75
2020/12/11 06:10:23;;;;;;;8.77;2.80;;;;;;;-5.36;80.71;100744.63;1832628;77;20941;-76
2020/12/11 06:12:51;;;;;;;2.43;2.23;;;;;;;-5.33;80.68;100723.88;1834753;76;21119;-75
2020/12/11 06:15:34;;;;;;;7.60;3.63;;;;;;;-5.31;80.63;100726.47;1841590;76;21999;-76
2020/12/11 06:18:21;;;;;;;4.50;3.10;;;;;;;-5.29;80.61;100732.55;1833999;76;21000;-75
2020/12/11 06:20:51;;;;;;;3.90;3.07;;;;;;;-5.30;80.59;100714.56;1834219;77;20945;-76
2020/12/11 06:23:27;;;;;;;2.73;2.53;;;;;;;-5.27;80.54;100713.61;1853140;76;20989;-76
2020/12/11 06:26:00;;;;;;;3.53;2.87;;;;;;;-5.26;80.53;100716.62;1850700;76;20996;-76
2020/12/11 06:28:48;;;;;;;8.00;3.47;;;;;;;-5.23;80.54;100716.06;1860160;76;21250;-75
2020/12/11 06:31:21;;;;;;;7.33;2.77;;;;;;;-5.21;80.53;100712.05;1860669;77;20917;-76
2020/12/11 06:33:53;;;;;;;;;;;;;;;-5.18;80.53;100716.77;1863719;77;21483;-76
2020/12/11 06:36:21;;;;;;;2.70;2.33;;;;;;;-5.15;80.50;100702.63;1788324;79;20242;-77
2020/12/11 06:38:55;;;;;;;5.37;3.33;;;;;;;-5.12;80.51;100702.49;1788492;80;21087;-76
2020/12/11 06:41:34;;;;;;;4.17;3.27;;;;;;;-5.10;80.45;100700.66;1788591;80;21783;-76
2020/12/11 06:44:17;;;;;;;3.37;2.47;;;;;;;-5.05;80.47;100702.67;1788632;80;21028;-75
2020/12/11 06:47:05;;;;;;;;;;;;;;;-4.98;80.50;100704.17;1791330;80;21075;-75
2020/12/11 06:50:06;;;;;;;8.30;3.77;;;;;;;-4.83;80.50;100701.44;1852138;76;22839;-78
2020/12/11 06:52:34;;;;;;;5.40;3.30;;;;;;;-4.78;80.48;100696.86;1782729;80;20991;-78
2020/12/11 06:55:02;;;;;;;7.40;2.87;;;;;;;-4.69;80.33;100693.45;1855136;77;21196;-76
2020/12/11 06:57:32;;;;;;;5.40;2.70;;;;;;;-4.64;80.23;100701.63;1855274;77;20937;-75
2020/12/11 07:00:20;;;;;;;4.53;3.30;;;;;;;-4.51;80.22;100694.56;1855152;77;20911;-75
2020/12/11 07:03:13;;;;;;;5.10;2.70;;;;;;;-4.42;80.16;100694.20;1855181;77;20980;-79
2020/12/11 07:05:42;;;;;;;2.50;2.10;;;;;;;-4.29;80.01;100686.64;1776322;80;21590;-76
2020/12/11 07:08:14;;;;;;;2.53;2.33;;;;;;;-4.20;79.79;100685.84;1730407;83;22413;-77
2020/12/11 07:10:43;;;;;;;2.58;2.42;;;;;;;-4.12;79.58;100678.91;1777956;80;21013;-77
2020/12/11 07:13:11;;;;;;;3.13;2.83;;;;;;;-4.05;79.37;100684.34;1730465;83;21033;-79
2020/12/11 07:15:40;;;;;;;6.30;3.47;;;;;;;-3.95;79.21;100680.00;1778029;80;21041;-77
2020/12/11 07:18:16;;;;;;;4.87;2.77;;;;;;;-3.91;78.95;100678.50;1729041;83;20989;-75
2020/12/11 07:20:58;;;;;;;4.33;2.93;;;;;;;-3.78;78.76;100666.10;1845777;76;24045;-77
2020/12/11 07:23:26;;;;;;;3.63;2.87;;;;;;;-3.78;78.54;100672.23;1815533;79;20976;-77
2020/12/11 07:25:55;;;;;;;4.90;2.97;;;;;;;-3.69;78.44;100677.60;1815394;79;21028;-73
2020/12/11 07:28:23;;;;;;;2.57;2.23;;;;;;;-3.59;78.33;100675.41;1815110;79;20921;-73
2020/12/11 07:30:51;;;;;;;3.63;2.43;;;;;;;-3.46;78.32;100668.22;1814751;79;21633;-73
2020/12/11 07:33:20;;;;;;;2.40;2.20;;;;;;;-3.26;78.29;100663.84;1814930;79;20996;-69
2020/12/11 07:35:49;;;;;;;2.50;2.30;;;;;;;-3.01;78.20;100660.11;1815211;79;21044;-68
2020/12/11 07:38:19;;;;;;;1.73;1.63;;;;;;;-2.78;78.00;100651.11;1815179;79;21413;-71
2020/12/11 07:40:54;;;;;;;3.83;2.63;;;;;;;-2.58;77.55;100653.70;1802943;78;21012;-69
2020/12/11 07:43:24;;;;;;;2.90;1.93;;;;;;;-2.43;77.14;100656.08;1837820;78;21046;-73
2020/12/11 07:45:53;;;;;;;2.90;2.60;;;;;;;-2.32;76.71;100653.80;1838937;78;21044;-76
2020/12/11 07:48:23;;;;;;;3.67;2.40;;;;;;;-2.22;76.11;100650.22;1838682;78;21005;-76
2020/12/11 07:50:52;;;;;;;3.20;2.37;;;;;;;-2.17;75.74;100641.58;1816046;78;21423;-73
2020/12/11 07:53:20;;;;;;;2.43;2.20;;;;;;;-2.06;75.58;100650.80;1836568;77;21017;-75
2020/12/11 07:55:48;;;;;;;2.53;1.70;;;;;;;-1.95;75.16;100638.75;1836559;78;22065;-68
2020/12/11 07:58:16;;;;;;;4.20;2.60;;;;;;;-1.83;74.97;100641.70;1837429;78;21127;-70
2020/12/11 08:00:43;;;;;;;3.10;2.00;;;;;;;-1.69;74.56;100636.56;1837253;78;21013;-68
2020/12/11 08:03:11;;;;;;;2.50;2.27;;;;;;;-1.57;74.41;100639.06;1826324;78;21652;-68
2020/12/11 08:05:39;;;;;;;6.53;2.93;;;;;;;-1.43;74.00;100620.64;1813284;79;20934;-69
2020/12/11 08:08:08;;;;;;;3.37;2.87;;;;;;;-1.30;73.59;100621.32;1813282;79;21546;-69
2020/12/11 08:10:42;;;;;;;7.57;4.13;;;;;;;-1.19;73.19;100614.96;1746668;82;21175;-68
2020/12/11 08:13:13;;;;;;;4.47;1.93;;;;;;;-1.09;72.81;100617.52;1709278;82;21184;-68
2020/12/11 08:15:43;;;;;;;7.27;3.30;;;;;;;-0.95;72.74;100606.16;1744519;82;22274;-68
2020/12/11 08:18:23;;;;;;;5.13;2.70;;;;;;;-0.76;72.26;100610.00;1739407;80;20984;-69
2020/12/11 08:20:59;;;;;;;5.53;2.57;;;;;;;-0.65;71.97;100604.94;1717782;82;21018;-70
2020/12/11 08:26:13;;;;;;;6.40;2.40;;;;;;;-0.42;70.97;100600.98;1762533;80;21021;-68
2020/12/11 08:28:42;;;;;;;4.07;3.00;;;;;;;-0.28;71.03;100596.70;1762204;81;21201;-68
2020/12/11 08:31:23;;;;;;;10.43;3.37;;;;;;;-0.06;70.90;100580.35;1762129;81;21033;-75
2020/12/11 08:34:00;;;;;;;4.70;2.77;;;;;;;0.14;70.52;100584.48;1762314;81;21021;-67
2020/12/11 08:39:25;;;;;;;7.17;2.97;;;;;;;0.60;69.24;100566.23;1889635;76;27199;-68
2020/12/11 08:47:50;;;;;;;5.80;2.57;;;;;;;0.91;67.06;100552.72;1727274;79;21061;-75
2020/12/11 08:52:50;;;;;;;4.77;3.07;;;;;;;0.91;65.93;100554.05;1758637;81;20966;-75
2020/12/11 08:55:18;;;;;;;5.60;2.50;;;;;;;0.93;66.01;100543.31;1793061;80;21399;-73
2020/12/11 08:57:49;;;;;;;4.70;2.73;;;;;;;1.01;65.95;100546.80;1793132;80;21361;-74
2020/12/11 09:00:17;;;;;;;5.50;2.80;;;;;;;1.11;65.45;100543.45;1792628;80;20977;-74
2020/12/11 09:02:45;;;;;;;4.37;2.60;;;;;;;1.16;64.92;100535.67;1792945;80;21675;-75
2020/12/11 09:05:14;;;;;;;4.73;2.67;;;;;;;1.19;64.67;100537.66;1793052;80;21068;-76
2020/12/11 09:07:41;;;;;;;5.20;2.80;;;;;;;1.25;64.48;100531.08;1768975;80;21012;-67
2020/12/11 09:10:10;;;;;;;5.20;3.07;;;;;;;1.35;64.12;100537.98;1755072;81;21331;-69
2020/12/11 09:12:37;;;;;;;5.03;2.73;;;;;;;1.44;64.11;100529.41;1743969;81;21216;-69
2020/12/11 09:15:08;;;;;;;4.93;2.37;;;;;;;1.57;63.86;100516.97;1720303;83;21715;-70
2020/12/11 09:17:36;;;;;;;5.30;2.70;;;;;;;1.69;63.55;100508.16;1720322;82;21643;-68
2020/12/11 09:20:05;;;;;;;12.33;2.60;;;;;;;1.76;63.08;100517.94;1720382;83;21085;-69
2020/12/11 09:22:33;;;;;;;6.00;3.03;;;;;;;1.85;62.97;100515.13;1730416;82;21205;-71
2020/12/11 09:25:01;;;;;;;5.40;3.33;;;;;;;1.93;62.48;100507.48;1721796;82;21673;-70
2020/12/11 09:27:29;;;;;;;5.10;3.07;;;;;;;1.98;62.47;100507.98;1702664;82;21044;-68
2020/12/11 09:35:26;;;;;;;3.87;2.30;;;;;;;2.35;61.08;100496.12;1815982;78;20973;-73
2020/12/11 09:37:54;;;;;;;3.03;2.50;;;;;;;2.34;60.66;100494.89;1790368;78;21434;-71
2020/12/11 09:40:39;;;;;;;4.07;2.57;;;;;;;2.29;60.36;100491.23;1786026;79;20976;-75
2020/12/11 09:56:22;;;;;;;10.20;4.13;;;;;;;2.34;60.18;100473.53;1736916;80;21024;-70
2020/12/11 09:58:54;;;;;;;8.10;3.23;;;;;;;2.46;60.09;100472.22;1769131;81;21082;-69
2020/12/11 10:04:15;;;;;;;5.23;3.20;;;;;;;2.69;60.00;100451.50;1751869;81;21545;-71
2020/12/11 10:06:43;;;;;;;4.73;2.50;;;;;;;2.84;59.24;100460.59;1748451;81;21645;-72
2020/12/11 10:09:11;;;;;;;7.17;3.10;;;;;;;2.85;58.72;100458.77;1766053;81;21037;-69
2020/12/11 10:11:40;;;;;;;5.33;2.33;;;;;;;2.80;58.50;100459.61;1769517;81;21056;-69
2020/12/11 10:16:44;;;;;;;8.73;3.60;;;;;;;2.80;58.68;100459.61;1676316;85;21385;-70
2020/12/11 10:19:13;;;;;;;5.83;2.40;;;;;;;2.89;58.81;100455.42;1661926;85;21227;-70
2020/12/11 10:21:50;;;;;;;4.93;2.97;;;;;;;3.04;58.49;100445.77;1844543;76;26534;-71
2020/12/11 10:24:18;;;;;;;2.90;2.10;;;;;;;2.97;58.07;100443.19;1794291;79;20917;-71
2020/12/11 10:26:46;;;;;;;2.80;2.57;;;;;;;2.97;57.87;100439.67;1808863;79;21788;-69
2020/12/11 10:29:15;;;;;;;4.33;2.73;;;;;;;2.90;57.70;100437.92;1799692;79;21012;-72
2020/12/11 10:31:44;;;;;;;5.63;2.40;;;;;;;2.90;57.94;100437.92;1786947;79;21683;-71
2020/12/11 10:34:14;;;;;;;6.37;2.80;;;;;;;2.96;58.08;100433.98;1715797;82;21012;-76
2020/12/11 10:36:44;;;;;;;5.27;2.47;;;;;;;3.07;58.21;100441.20;1757699;80;21144;-75
2020/12/11 10:39:12;;;;;;;4.23;2.70;;;;;;;3.15;57.85;100434.33;1803673;79;22101;-75
2020/12/11 10:41:43;;;;;;;4.17;2.70;;;;;;;3.19;57.44;100434.45;1803265;79;21036;-75
2020/12/11 10:44:11;;;;;;;4.27;2.80;;;;;;;3.23;57.30;100442.61;1779913;80;20990;-75
2020/12/11 10:46:39;;;;;;;3.50;2.20;;;;;;;3.25;57.21;100429.63;1803041;79;21005;-72
2020/12/11 10:49:07;;;;;;;6.53;2.97;;;;;;;3.30;57.07;100439.49;1802986;79;21163;-74
2020/12/11 10:51:36;;;;;;;4.07;2.07;;;;;;;3.31;56.94;100419.34;1779419;80;21165;-72
2020/12/11 10:54:03;;;;;;;6.43;2.70;;;;;;;3.36;57.03;100433.17;1763890;79;21378;-73
2020/12/11 10:56:31;;;;;;;3.10;2.37;;;;;;;3.41;56.80;100429.67;1769729;80;21033;-76
2020/12/11 10:58:59;;;;;;;4.90;2.60;;;;;;;3.44;56.48;100432.63;1747350;82;21580;-75
2020/12/11 11:01:27;;;;;;;4.90;2.70;;;;;;;3.41;56.46;100435.52;1771188;81;21085;-78
2020/12/11 11:03:55;;;;;;;4.50;2.57;;;;;;;3.36;56.33;100429.17;1772335;79;21568;-78
2020/12/11 11:06:31;;;;;;;4.80;2.67;;;;;;;3.31;56.46;100419.34;1761384;81;21090;-75
2020/12/11 11:11:41;;;;;;;5.27;2.50;;;;;;;3.31;56.56;100425.14;1768750;81;21563;-75
2020/12/11 11:27:07;;;;;;;5.33;2.50;;;;;;;3.55;56.34;100423.30;1783284;80;21372;-75
2020/12/11 11:29:34;;;;;;;5.47;2.60;;;;;;;3.58;56.04;100421.73;1788064;79;21015;-74
2020/12/11 11:32:02;;;;;;;4.47;2.63;;;;;;;3.56;55.97;100404.95;1796256;79;21577;-75
2020/12/11 11:34:30;;;;;;;4.93;2.43;;;;;;;3.56;55.95;100416.11;1796801;79;21048;-76
2020/12/11 11:36:58;;;;;;;4.33;2.23;;;;;;;3.52;56.05;100403.95;1790748;79;21434;-73
2020/12/11 11:39:25;;;;;;;4.20;2.37;;;;;;;3.55;56.10;100400.56;1799285;79;21192;-71
2020/12/11 11:41:57;;;;;;;7.33;2.63;;;;;;;3.59;55.98;100395.38;1810842;78;21016;-74
2020/12/11 11:47:02;;;;;;;6.37;3.03;;;;;;;3.69;55.60;100402.69;1771036;79;21071;-74
2020/12/11 11:49:53;;;;;;;4.07;2.40;;;;;;;3.76;55.48;100390.05;1821621;76;26291;-72
2020/12/11 11:54:37;;;;;;;5.13;2.33;;;;;;;3.76;55.37;100383.85;1798454;79;21142;-72
2020/12/11 11:57:05;;;;;;;5.27;2.90;;;;;;;3.97;55.22;100389.36;1700289;83;20977;-72
2020/12/11 11:59:34;;;;;;;3.87;2.07;;;;;;;4.25;54.46;100391.17;1702415;83;21617;-71
2020/12/11 12:02:02;;;;;;;3.33;1.77;;;;;;;4.26;54.24;100392.40;1728025;82;21043;-72
2020/12/11 12:04:30;;;;;;;5.47;2.50;;;;;;;4.36;53.93;100386.68;1750414;82;21062;-72
2020/12/11 12:06:58;;;;;;;4.07;1.97;;;;;;;4.48;53.71;100388.88;1751618;82;21035;-73
2020/12/11 12:09:26;;;;;;;6.43;2.60;;;;;;;4.58;53.26;100392.98;1750173;82;21648;-73
2020/12/11 12:11:56;;;;;;;4.23;2.43;;;;;;;4.63;53.49;100397.98;1706605;82;21178;-69
2020/12/11 12:14:24;;;;;;;5.63;2.50;;;;;;;4.77;53.17;100401.73;1725404;82;21102;-70
2020/12/11 12:16:54;;;;;;;6.63;2.67;;;;;;;4.84;52.88;100402.09;1743733;81;21009;-69
2020/12/11 12:19:28;;;;;;;5.83;2.67;;;;;;;4.86;52.75;100398.79;1698601;82;21739;-68
2020/12/11 12:29:57;;;;;;;7.03;2.90;;;;;;;5.24;51.49;100394.29;1655577;86;20965;-68
2020/12/11 12:32:27;;;;;;;5.00;2.50;;;;;;;5.27;51.46;100395.84;1701770;83;21908;-76
2020/12/11 12:35:00;;;;;;;3.47;2.03;;;;;;;5.29;51.35;100397.91;1713075;82;21682;-73
2020/12/11 12:37:44;;;;;;;3.58;2.15;;;;;;;5.29;51.14;100398.78;1699520;82;21108;-75
2020/12/11 12:45:11;;;;;;;4.57;2.57;;;;;;;4.97;51.01;100395.23;1743493;82;21389;-73
2020/12/11 12:47:40;;;;;;;4.23;2.53;;;;;;;4.73;51.54;100399.79;1738417;80;21041;-74
2020/12/11 12:50:09;;;;;;;2.40;2.03;;;;;;;4.53;51.92;100405.89;1722023;81;20966;-72
2020/12/11 12:52:37;;;;;;;7.07;2.90;;;;;;;4.35;52.33;100408.22;1719770;81;21060;-72